Time;durP1;ratioP1;P1;durP2;ratioP2;P2;SDS_P1;SDS_P2;PMS_P1;PMS_P2;Temp;Humidity;BMP_temperature;BMP_pressure;BME280_temperature;BME280_humidity;BME280_pressure;Samples;Min_cycle;Max_cycle;Signal;HPM_P1;HPM_P2
2021/12/31 00:01:10;;;;;;;13.00;2.90;;;;;;;;;;5105965;27;20107;-81
2021/12/31 00:03:37;;;;;;;13.77;2.75;;;;;;;;;;5133628;27;20411;-82
2021/12/31 00:06:03;;;;;;;15.60;2.88;;;;;;;;;;5133388;27;20143;-82
2021/12/31 00:08:29;;;;;;;13.23;2.88;;;;;;;;;;5133539;27;20133;-81
2021/12/31 00:10:59;;;;;;;16.10;2.85;;;;;;;;;;5133678;27;20130;-82
2021/12/31 00:13:26;;;;;;;13.57;2.83;;;;;;;;;;5094884;28;20039;-83
2021/12/31 00:15:52;;;;;;;13.38;2.97;;;;;;;;;;5113064;28;20051;-81
2021/12/31 00:18:18;;;;;;;10.98;2.67;;;;;;;;;;5118614;27;20112;-82
2021/12/31 00:20:44;;;;;;;15.18;3.00;;;;;;;;;;5114852;27;20122;-82
2021/12/31 00:23:13;;;;;;;13.85;2.78;;;;;;;;;;5127106;27;20066;-82
2021/12/31 00:25:40;;;;;;;12.73;2.45;;;;;;;;;;5114717;28;20055;-83
2021/12/31 00:28:07;;;;;;;16.67;2.92;;;;;;;;;;5132173;28;20114;-82
2021/12/31 00:30:34;;;;;;;14.35;3.10;;;;;;;;;;5113636;27;20054;-82
2021/12/31 00:33:01;;;;;;;16.58;2.80;;;;;;;;;;5112557;27;20113;-82
2021/12/31 00:35:28;;;;;;;15.15;3.03;;;;;;;;;;5114529;27;20040;-82
2021/12/31 00:37:54;;;;;;;16.25;3.25;;;;;;;;;;5117504;27;20047;-82
2021/12/31 00:40:20;;;;;;;15.32;3.08;;;;;;;;;;5132638;27;20042;-83
2021/12/31 00:42:47;;;;;;;12.27;3.28;;;;;;;;;;5133141;27;20039;-81
2021/12/31 00:45:14;;;;;;;13.77;2.88;;;;;;;;;;5121207;27;20141;-81
2021/12/31 00:47:40;;;;;;;15.48;2.95;;;;;;;;;;5135251;28;20050;-81
2021/12/31 00:50:07;;;;;;;11.75;2.50;;;;;;;;;;5133813;28;20031;-83
2021/12/31 00:52:34;;;;;;;15.00;3.03;;;;;;;;;;5134651;28;20042;-80
2021/12/31 00:55:00;;;;;;;15.95;2.88;;;;;;;;;;5116121;28;20055;-81
2021/12/31 00:57:26;;;;;;;14.80;3.35;;;;;;;;;;5116259;28;20430;-81
2021/12/31 01:00:05;;;;;;;16.02;2.85;;;;;;;;;;5134695;28;20382;-82
2021/12/31 01:02:32;;;;;;;13.48;2.90;;;;;;;;;;5111757;28;20042;-81
2021/12/31 01:04:58;;;;;;;10.45;2.88;;;;;;;;;;5125117;28;20101;-82
2021/12/31 01:07:24;;;;;;;15.23;3.00;;;;;;;;;;5132203;28;20053;-81
2021/12/31 01:09:50;;;;;;;14.20;3.10;;;;;;;;;;5132387;28;20114;-83
2021/12/31 01:12:17;;;;;;;12.30;2.97;;;;;;;;;;5113842;28;20054;-81
2021/12/31 01:15:03;;;;;;;15.02;2.90;;;;;;;;;;5131580;28;20043;-83
2021/12/31 01:18:17;;;;;;;15.10;3.17;;;;;;;;;;5132109;28;20168;-82
2021/12/31 01:20:22;;;;;;;12.32;2.97;;;;;;;;;;5129443;28;20548;-82
2021/12/31 01:22:49;;;;;;;13.52;3.00;;;;;;;;;;5130947;28;20118;-81
2021/12/31 01:25:15;;;;;;;14.85;3.40;;;;;;;;;;5113226;28;20491;-81
2021/12/31 01:27:42;;;;;;;16.98;3.65;;;;;;;;;;5132061;27;20042;-82
2021/12/31 01:30:09;;;;;;;11.10;2.85;;;;;;;;;;5128999;27;20400;-81
2021/12/31 01:32:35;;;;;;;13.68;3.03;;;;;;;;;;5126285;27;20045;-81
2021/12/31 01:35:02;;;;;;;14.18;3.55;;;;;;;;;;5124361;27;20046;-82
2021/12/31 01:37:28;;;;;;;13.55;3.33;;;;;;;;;;5133801;27;20061;-82
2021/12/31 01:39:54;;;;;;;16.70;3.17;;;;;;;;;;5097357;28;20047;-81
2021/12/31 01:42:28;;;;;;;14.73;3.15;;;;;;;;;;5115298;27;20043;-82
2021/12/31 01:44:58;;;;;;;16.60;3.85;;;;;;;;;;5066503;27;20052;-81
2021/12/31 01:47:34;;;;;;;13.85;2.88;;;;;;;;;;5117784;27;20075;-81
2021/12/31 01:50:05;;;;;;;15.13;3.10;;;;;;;;;;5122978;27;20433;-81
2021/12/31 01:52:31;;;;;;;13.43;3.38;;;;;;;;;;5083540;28;20051;-82
2021/12/31 01:54:57;;;;;;;14.25;3.03;;;;;;;;;;5133117;27;20115;-81
2021/12/31 01:57:24;;;;;;;17.38;3.05;;;;;;;;;;5135284;27;20038;-81
2021/12/31 01:59:50;;;;;;;12.05;3.20;;;;;;;;;;5134146;27;20123;-81
2021/12/31 02:02:17;;;;;;;12.60;3.20;;;;;;;;;;5125717;27;20043;-82
2021/12/31 02:04:44;;;;;;;10.63;2.90;;;;;;;;;;5133844;27;20448;-82
2021/12/31 02:07:10;;;;;;;12.95;3.22;;;;;;;;;;5135870;27;20130;-81
2021/12/31 02:09:46;;;;;;;12.43;3.50;;;;;;;;;;5096435;27;20048;-81
2021/12/31 02:12:12;;;;;;;17.75;3.70;;;;;;;;;;5102231;27;20066;-82
2021/12/31 02:14:39;;;;;;;12.80;3.10;;;;;;;;;;5101456;28;20123;-82
2021/12/31 02:17:08;;;;;;;15.68;3.30;;;;;;;;;;5134235;27;20549;-83
2021/12/31 02:19:34;;;;;;;14.05;3.33;;;;;;;;;;5133497;27;20054;-83
2021/12/31 02:22:00;;;;;;;10.98;3.03;;;;;;;;;;5117558;27;20122;-82
2021/12/31 02:24:27;;;;;;;15.63;3.28;;;;;;;;;;5115765;27;20481;-82
2021/12/31 02:26:53;;;;;;;11.75;3.22;;;;;;;;;;5114013;27;20042;-82
2021/12/31 02:29:23;;;;;;;13.68;3.45;;;;;;;;;;5129497;27;20042;-81
2021/12/31 02:31:49;;;;;;;14.45;3.53;;;;;;;;;;5097307;28;20488;-80
2021/12/31 02:34:15;;;;;;;11.60;3.83;;;;;;;;;;5131473;27;20122;-81
2021/12/31 02:36:42;;;;;;;12.18;3.17;;;;;;;;;;5134357;27;20055;-81
2021/12/31 02:39:08;;;;;;;17.20;3.67;;;;;;;;;;5115457;27;20395;-80
2021/12/31 02:41:35;;;;;;;14.20;3.47;;;;;;;;;;5108237;27;20092;-81
2021/12/31 02:44:01;;;;;;;13.02;3.35;;;;;;;;;;5122280;27;20045;-81
2021/12/31 02:46:27;;;;;;;10.18;3.67;;;;;;;;;;5102577;28;20039;-81
2021/12/31 02:48:57;;;;;;;13.13;3.65;;;;;;;;;;5098990;27;20082;-81
2021/12/31 02:51:24;;;;;;;12.20;3.77;;;;;;;;;;5128564;27;20074;-82
2021/12/31 02:53:52;;;;;;;11.20;3.95;;;;;;;;;;5134254;27;20691;-81
2021/12/31 02:56:25;;;;;;;12.43;3.90;;;;;;;;;;5132738;27;20122;-82
2021/12/31 02:58:51;;;;;;;10.15;4.18;;;;;;;;;;5133929;27;20126;-80
2021/12/31 03:01:18;;;;;;;11.45;4.40;;;;;;;;;;5121752;27;20047;-82
2021/12/31 03:03:45;;;;;;;10.88;3.90;;;;;;;;;;5115615;27;20043;-80
2021/12/31 03:06:11;;;;;;;10.20;4.15;;;;;;;;;;5113137;27;20050;-81
2021/12/31 03:08:44;;;;;;;11.70;4.00;;;;;;;;;;5124750;27;20043;-81
2021/12/31 03:11:10;;;;;;;12.77;4.70;;;;;;;;;;5127028;27;20047;-80
2021/12/31 03:13:38;;;;;;;10.90;4.93;;;;;;;;;;5112665;27;20043;-80
2021/12/31 03:16:06;;;;;;;12.52;5.22;;;;;;;;;;5097818;27;20038;-82
2021/12/31 03:18:33;;;;;;;12.07;4.95;;;;;;;;;;5133793;27;20039;-81
2021/12/31 03:21:10;;;;;;;11.63;4.57;;;;;;;;;;5108097;28;20047;-82
2021/12/31 03:23:36;;;;;;;10.05;4.40;;;;;;;;;;5100058;27;20077;-82
2021/12/31 03:26:02;;;;;;;12.07;5.20;;;;;;;;;;5133503;27;20133;-81
2021/12/31 03:28:28;;;;;;;9.77;4.63;;;;;;;;;;5127687;27;20048;-83
2021/12/31 03:30:55;;;;;;;11.32;5.30;;;;;;;;;;5113574;27;20039;-81
2021/12/31 03:33:21;;;;;;;12.30;5.30;;;;;;;;;;5126505;27;20500;-81
2021/12/31 03:35:47;;;;;;;9.82;5.68;;;;;;;;;;5127252;27;20429;-81
2021/12/31 03:38:13;;;;;;;12.43;5.47;;;;;;;;;;5115081;27;20122;-81
2021/12/31 03:40:40;;;;;;;10.95;5.20;;;;;;;;;;5119670;27;20086;-81
2021/12/31 03:43:08;;;;;;;10.13;5.03;;;;;;;;;;5095314;27;20046;-81
2021/12/31 03:45:34;;;;;;;11.55;5.03;;;;;;;;;;5122212;27;20043;-81
2021/12/31 03:48:00;;;;;;;11.07;4.90;;;;;;;;;;5121212;27;20047;-81
2021/12/31 03:50:26;;;;;;;13.98;4.43;;;;;;;;;;5114776;27;20050;-81
2021/12/31 03:52:52;;;;;;;12.10;5.30;;;;;;;;;;5129004;27;20476;-81
2021/12/31 03:55:18;;;;;;;8.57;4.55;;;;;;;;;;5112931;27;20058;-80
2021/12/31 03:57:44;;;;;;;13.10;4.93;;;;;;;;;;5124129;27;20470;-81
2021/12/31 04:00:11;;;;;;;12.82;4.82;;;;;;;;;;5121831;27;20060;-80
2021/12/31 04:02:37;;;;;;;12.32;4.80;;;;;;;;;;5126122;27;20084;-80
2021/12/31 04:05:04;;;;;;;12.95;4.80;;;;;;;;;;5124151;27;20074;-80
2021/12/31 04:07:30;;;;;;;11.82;4.35;;;;;;;;;;5132666;27;20039;-81
2021/12/31 04:09:56;;;;;;;10.07;4.72;;;;;;;;;;5130470;27;20672;-81
2021/12/31 04:12:22;;;;;;;12.48;4.55;;;;;;;;;;5095176;28;20052;-82
2021/12/31 04:14:48;;;;;;;10.75;4.50;;;;;;;;;;5123189;27;20556;-81
2021/12/31 04:17:15;;;;;;;10.85;4.75;;;;;;;;;;5132544;27;20046;-81
2021/12/31 04:19:42;;;;;;;12.25;4.53;;;;;;;;;;5096188;27;20055;-80
2021/12/31 04:22:11;;;;;;;10.32;4.72;;;;;;;;;;5079019;28;20050;-81
2021/12/31 04:27:10;;;;;;;11.48;4.60;;;;;;;;;;5110812;27;20062;-82
2021/12/31 04:29:36;;;;;;;13.13;4.93;;;;;;;;;;5111459;28;20050;-81
2021/12/31 04:32:03;;;;;;;11.13;5.32;;;;;;;;;;5115170;27;20039;-80
2021/12/31 04:34:29;;;;;;;11.55;5.00;;;;;;;;;;5131613;27;20047;-81
2021/12/31 04:36:55;;;;;;;9.35;4.75;;;;;;;;;;5133220;28;20046;-82
2021/12/31 04:39:22;;;;;;;10.13;5.35;;;;;;;;;;5129201;27;20479;-82
2021/12/31 04:41:48;;;;;;;10.07;5.32;;;;;;;;;;5112950;28;20039;-80
2021/12/31 04:44:14;;;;;;;11.25;5.10;;;;;;;;;;5118648;27;20039;-81
2021/12/31 04:46:40;;;;;;;15.13;5.50;;;;;;;;;;5127343;27;20039;-81
2021/12/31 04:49:07;;;;;;;10.25;5.40;;;;;;;;;;5116303;27;20489;-81
2021/12/31 04:51:33;;;;;;;10.75;5.35;;;;;;;;;;5110600;28;20051;-81
2021/12/31 04:54:00;;;;;;;10.25;5.03;;;;;;;;;;5122854;27;20082;-82
2021/12/31 04:56:26;;;;;;;13.35;4.55;;;;;;;;;;5077271;28;20059;-81
2021/12/31 04:58:52;;;;;;;10.30;4.53;;;;;;;;;;5112488;27;20089;-81
2021/12/31 05:01:21;;;;;;;11.55;4.68;;;;;;;;;;5109889;27;20050;-82
2021/12/31 05:03:48;;;;;;;11.35;4.53;;;;;;;;;;5107404;28;20055;-80
2021/12/31 05:06:15;;;;;;;12.27;4.57;;;;;;;;;;5131765;27;20043;-80
2021/12/31 05:08:41;;;;;;;11.10;4.45;;;;;;;;;;5136532;27;20487;-81
2021/12/31 05:11:07;;;;;;;10.52;4.00;;;;;;;;;;5136289;27;20146;-81
2021/12/31 05:13:33;;;;;;;10.52;3.70;;;;;;;;;;5130057;27;20067;-81
2021/12/31 05:16:03;;;;;;;9.10;3.85;;;;;;;;;;5104445;27;20047;-80
2021/12/31 05:18:29;;;;;;;8.80;3.70;;;;;;;;;;5136118;27;20061;-80
2021/12/31 05:20:56;;;;;;;10.85;3.40;;;;;;;;;;5135309;27;20161;-81
2021/12/31 05:23:22;;;;;;;8.32;3.50;;;;;;;;;;5117503;27;20078;-82
2021/12/31 05:25:49;;;;;;;7.22;2.65;;;;;;;;;;5118283;27;20050;-80
2021/12/31 05:28:15;;;;;;;7.88;3.00;;;;;;;;;;5133979;27;20043;-81
2021/12/31 05:30:41;;;;;;;8.90;3.28;;;;;;;;;;5127283;27;20046;-81
2021/12/31 05:33:07;;;;;;;6.88;2.58;;;;;;;;;;5123427;27;20507;-81
2021/12/31 05:35:33;;;;;;;9.00;2.47;;;;;;;;;;5134584;27;20561;-81
2021/12/31 05:37:59;;;;;;;9.00;2.80;;;;;;;;;;5099824;27;20122;-81
2021/12/31 05:40:25;;;;;;;6.05;2.33;;;;;;;;;;5115568;27;20047;-81
2021/12/31 05:42:51;;;;;;;6.85;2.78;;;;;;;;;;5116146;27;20087;-82
2021/12/31 05:45:18;;;;;;;6.60;2.33;;;;;;;;;;5117046;27;20099;-81
2021/12/31 05:47:44;;;;;;;7.65;2.38;;;;;;;;;;5114260;27;20524;-81
2021/12/31 05:50:19;;;;;;;6.95;2.20;;;;;;;;;;5130988;27;20043;-81
2021/12/31 05:52:48;;;;;;;7.15;2.45;;;;;;;;;;5115790;28;20082;-82
2021/12/31 05:55:14;;;;;;;8.13;2.20;;;;;;;;;;5134272;27;20055;-84
2021/12/31 05:57:40;;;;;;;8.02;2.17;;;;;;;;;;5117585;27;20392;-82
2021/12/31 06:00:07;;;;;;;8.02;2.10;;;;;;;;;;5130001;27;20110;-81
2021/12/31 06:02:33;;;;;;;6.93;1.95;;;;;;;;;;5135114;27;20047;-81
2021/12/31 06:04:59;;;;;;;9.52;2.58;;;;;;;;;;5115393;27;20043;-81
2021/12/31 06:07:25;;;;;;;8.98;2.50;;;;;;;;;;5135024;27;20476;-81
2021/12/31 06:09:51;;;;;;;8.57;2.40;;;;;;;;;;5126492;27;20079;-82
2021/12/31 06:12:18;;;;;;;6.43;2.60;;;;;;;;;;5114905;27;20074;-81
2021/12/31 06:14:44;;;;;;;9.20;2.75;;;;;;;;;;5128684;27;20051;-81
2021/12/31 06:17:12;;;;;;;8.45;2.90;;;;;;;;;;5116362;27;20100;-80
2021/12/31 06:19:39;;;;;;;9.25;3.60;;;;;;;;;;5122117;27;20089;-81
2021/12/31 06:22:05;;;;;;;7.13;2.47;;;;;;;;;;5135106;27;20062;-81
2021/12/31 06:24:31;;;;;;;8.05;2.15;;;;;;;;;;5108581;28;20067;-81
2021/12/31 06:26:57;;;;;;;7.53;2.40;;;;;;;;;;5118962;27;20465;-81
2021/12/31 06:29:23;;;;;;;6.45;2.28;;;;;;;;;;5130408;27;20039;-81
2021/12/31 06:31:49;;;;;;;6.55;1.73;;;;;;;;;;5128152;27;20050;-81
2021/12/31 06:34:15;;;;;;;7.35;2.55;;;;;;;;;;5115424;27;20114;-80
2021/12/31 06:36:42;;;;;;;6.45;1.90;;;;;;;;;;5121510;27;20540;-80
2021/12/31 06:39:08;;;;;;;6.38;2.15;;;;;;;;;;5117519;27;20640;-82
2021/12/31 06:41:34;;;;;;;5.32;1.80;;;;;;;;;;5119167;27;20046;-80
2021/12/31 06:44:00;;;;;;;7.72;2.13;;;;;;;;;;5134272;27;20522;-81
2021/12/31 06:46:27;;;;;;;8.80;1.92;;;;;;;;;;5108528;28;20074;-80
2021/12/31 06:48:53;;;;;;;7.82;1.88;;;;;;;;;;5126041;27;20488;-81
2021/12/31 06:51:19;;;;;;;7.80;2.10;;;;;;;;;;5119030;27;20039;-81
2021/12/31 06:53:45;;;;;;;7.65;2.42;;;;;;;;;;5129147;27;20488;-81
2021/12/31 06:56:11;;;;;;;7.72;1.80;;;;;;;;;;5133352;27;20121;-81
2021/12/31 06:58:37;;;;;;;7.10;1.90;;;;;;;;;;5099423;27;20061;-81
2021/12/31 07:01:03;;;;;;;6.57;2.00;;;;;;;;;;5100170;27;20128;-81
2021/12/31 07:03:31;;;;;;;9.90;1.92;;;;;;;;;;5129966;27;20122;-80
2021/12/31 07:05:58;;;;;;;5.45;1.95;;;;;;;;;;5117589;27;20086;-80
2021/12/31 07:08:24;;;;;;;6.13;1.90;;;;;;;;;;5124270;27;20039;-79
2021/12/31 07:10:50;;;;;;;7.13;1.95;;;;;;;;;;5095340;28;20043;-80
2021/12/31 07:13:16;;;;;;;7.25;2.05;;;;;;;;;;5095801;28;20372;-81
2021/12/31 07:15:44;;;;;;;7.07;2.20;;;;;;;;;;5130984;27;20092;-81
2021/12/31 07:18:10;;;;;;;7.20;2.00;;;;;;;;;;5133031;27;20487;-81
2021/12/31 07:20:37;;;;;;;7.70;2.35;;;;;;;;;;5093592;27;20047;-82
2021/12/31 07:23:04;;;;;;;5.85;2.10;;;;;;;;;;5133566;27;20509;-81
2021/12/31 07:25:31;;;;;;;6.63;2.03;;;;;;;;;;5103687;27;20038;-82
2021/12/31 07:27:57;;;;;;;7.45;2.13;;;;;;;;;;5134281;27;20388;-81
2021/12/31 07:30:23;;;;;;;6.35;1.83;;;;;;;;;;5098775;27;20042;-80
2021/12/31 07:32:49;;;;;;;7.28;2.13;;;;;;;;;;5122542;27;20043;-80
2021/12/31 07:35:15;;;;;;;8.05;2.38;;;;;;;;;;5096955;28;20043;-80
2021/12/31 07:37:41;;;;;;;7.30;2.08;;;;;;;;;;5128060;27;20036;-81
2021/12/31 07:40:10;;;;;;;7.32;2.63;;;;;;;;;;5097980;27;20054;-80
2021/12/31 07:42:36;;;;;;;7.13;2.80;;;;;;;;;;5133415;27;20418;-81
2021/12/31 07:45:03;;;;;;;10.18;2.67;;;;;;;;;;5133745;27;20050;-81
2021/12/31 07:47:29;;;;;;;6.97;2.60;;;;;;;;;;5133548;27;20096;-81
2021/12/31 07:49:56;;;;;;;7.68;2.30;;;;;;;;;;5133434;27;20434;-80
2021/12/31 07:52:22;;;;;;;6.65;2.28;;;;;;;;;;5132340;27;20039;-80
2021/12/31 07:54:48;;;;;;;8.80;2.70;;;;;;;;;;5132537;27;20062;-80
2021/12/31 07:57:16;;;;;;;6.30;2.55;;;;;;;;;;5133589;27;20039;-80
2021/12/31 07:59:42;;;;;;;8.02;2.70;;;;;;;;;;5129969;27;20039;-80
2021/12/31 08:02:08;;;;;;;6.72;2.90;;;;;;;;;;5123444;27;20540;-80
2021/12/31 08:04:34;;;;;;;6.60;2.70;;;;;;;;;;5133636;27;20495;-81
2021/12/31 08:07:00;;;;;;;6.95;2.80;;;;;;;;;;5132466;27;20046;-80
2021/12/31 08:09:27;;;;;;;10.07;3.22;;;;;;;;;;5132930;27;20039;-80
2021/12/31 08:11:53;;;;;;;7.15;2.80;;;;;;;;;;5115380;27;20031;-81
2021/12/31 08:14:19;;;;;;;10.63;2.90;;;;;;;;;;5133463;27;20046;-80
2021/12/31 08:16:45;;;;;;;8.55;2.80;;;;;;;;;;5133591;27;20500;-80
2021/12/31 08:19:11;;;;;;;6.97;2.70;;;;;;;;;;5111803;27;20171;-80
2021/12/31 08:21:37;;;;;;;6.72;2.42;;;;;;;;;;5130167;27;20198;-80
2021/12/31 08:24:03;;;;;;;7.30;2.88;;;;;;;;;;5130735;27;20122;-80
2021/12/31 08:26:30;;;;;;;6.43;2.88;;;;;;;;;;5127590;27;20123;-81
2021/12/31 08:28:56;;;;;;;8.93;2.70;;;;;;;;;;5127438;27;20070;-80
2021/12/31 08:31:22;;;;;;;11.25;2.58;;;;;;;;;;5136366;27;20119;-80
2021/12/31 08:33:49;;;;;;;6.97;2.65;;;;;;;;;;5134343;28;20500;-82
2021/12/31 08:36:15;;;;;;;8.35;2.90;;;;;;;;;;5133475;28;20050;-81
2021/12/31 08:38:41;;;;;;;7.72;3.10;;;;;;;;;;5112899;27;20126;-81
2021/12/31 08:41:08;;;;;;;7.97;2.45;;;;;;;;;;5159284;27;20042;-80
2021/12/31 08:43:34;;;;;;;6.68;2.80;;;;;;;;;;5140011;27;20091;-80
2021/12/31 08:46:00;;;;;;;8.90;2.90;;;;;;;;;;5139774;27;20054;-81
2021/12/31 08:48:26;;;;;;;9.07;2.90;;;;;;;;;;5119995;27;20039;-80
2021/12/31 08:50:52;;;;;;;10.52;3.00;;;;;;;;;;5102198;27;20096;-79
2021/12/31 08:53:18;;;;;;;8.20;2.80;;;;;;;;;;5137349;27;20049;-81
2021/12/31 08:55:44;;;;;;;7.07;2.67;;;;;;;;;;5137159;27;20055;-81
2021/12/31 08:58:10;;;;;;;7.57;2.83;;;;;;;;;;5137358;27;20042;-81
2021/12/31 09:00:37;;;;;;;9.88;2.88;;;;;;;;;;5119353;27;20078;-80
2021/12/31 09:03:04;;;;;;;8.93;2.30;;;;;;;;;;5137285;27;20110;-80
2021/12/31 09:05:30;;;;;;;7.47;2.20;;;;;;;;;;5119261;27;20047;-81
2021/12/31 09:07:56;;;;;;;9.23;2.50;;;;;;;;;;5102202;27;20091;-80
2021/12/31 09:10:22;;;;;;;8.63;2.72;;;;;;;;;;5119302;27;20365;-81
2021/12/31 09:12:50;;;;;;;5.95;2.45;;;;;;;;;;5118700;27;20054;-80
2021/12/31 09:15:16;;;;;;;7.20;2.50;;;;;;;;;;5137163;27;20122;-81
2021/12/31 09:17:43;;;;;;;8.40;2.55;;;;;;;;;;5136790;27;20035;-81
2021/12/31 09:20:09;;;;;;;6.78;2.30;;;;;;;;;;5136786;27;20494;-80
2021/12/31 09:22:35;;;;;;;6.53;2.40;;;;;;;;;;5118448;27;20125;-81
2021/12/31 09:25:01;;;;;;;8.93;2.80;;;;;;;;;;5136980;27;20062;-81
2021/12/31 09:27:28;;;;;;;7.10;2.80;;;;;;;;;;5136880;27;20046;-80
2021/12/31 09:29:54;;;;;;;8.00;2.80;;;;;;;;;;5136868;27;20043;-81
2021/12/31 09:32:21;;;;;;;7.90;2.85;;;;;;;;;;5118655;27;20468;-81
2021/12/31 09:34:48;;;;;;;7.97;2.88;;;;;;;;;;5136629;27;20035;-81
2021/12/31 09:37:14;;;;;;;7.03;2.80;;;;;;;;;;5118376;27;20138;-79
2021/12/31 09:39:41;;;;;;;7.88;2.90;;;;;;;;;;5136392;27;20045;-76
2021/12/31 09:42:07;;;;;;;8.13;2.83;;;;;;;;;;5136648;27;20168;-75
2021/12/31 09:44:34;;;;;;;8.43;3.30;;;;;;;;;;5136241;27;20077;-78
2021/12/31 09:47:07;;;;;;;9.73;3.10;;;;;;;;;;5136341;27;20555;-79
2021/12/31 09:49:33;;;;;;;10.10;3.30;;;;;;;;;;5135243;27;20047;-80
2021/12/31 09:52:00;;;;;;;7.00;2.95;;;;;;;;;;5117903;27;20043;-75
2021/12/31 09:54:26;;;;;;;6.22;2.72;;;;;;;;;;5100672;27;20126;-80
2021/12/31 09:56:52;;;;;;;7.10;2.80;;;;;;;;;;5136219;27;20051;-79
2021/12/31 09:59:18;;;;;;;9.18;3.60;;;;;;;;;;5136290;27;20058;-80
2021/12/31 10:01:45;;;;;;;8.82;3.45;;;;;;;;;;5117605;27;20042;-81
2021/12/31 10:04:11;;;;;;;7.88;3.10;;;;;;;;;;5135818;27;20031;-81
2021/12/31 10:06:38;;;;;;;9.27;3.47;;;;;;;;;;5117472;27;20062;-79
2021/12/31 10:09:04;;;;;;;9.30;3.38;;;;;;;;;;5117934;27;20126;-80
2021/12/31 10:11:30;;;;;;;8.02;3.00;;;;;;;;;;5136107;27;20103;-80
2021/12/31 10:13:57;;;;;;;7.13;3.38;;;;;;;;;;5117543;27;20579;-80
2021/12/31 10:16:30;;;;;;;6.72;3.03;;;;;;;;;;5117397;27;20070;-79
2021/12/31 10:19:06;;;;;;;8.25;3.20;;;;;;;;;;5135530;27;20043;-79
2021/12/31 10:21:43;;;;;;;7.72;3.25;;;;;;;;;;5117445;27;20498;-78
2021/12/31 10:24:28;;;;;;;8.52;3.38;;;;;;;;;;5135528;27;20050;-78
2021/12/31 10:26:56;;;;;;;10.20;3.63;;;;;;;;;;5135359;27;20547;-78
2021/12/31 10:29:23;;;;;;;7.00;2.90;;;;;;;;;;5135463;27;20039;-79
2021/12/31 10:31:52;;;;;;;8.70;3.28;;;;;;;;;;5117096;27;20050;-78
2021/12/31 10:34:31;;;;;;;7.20;3.10;;;;;;;;;;5117098;27;20050;-79
2021/12/31 10:36:58;;;;;;;9.93;5.63;;;;;;;;;;5135387;27;20051;-79
2021/12/31 10:39:26;;;;;;;7.28;3.25;;;;;;;;;;5135409;27;20039;-79
2021/12/31 10:42:06;;;;;;;6.22;3.35;;;;;;;;;;5135099;27;20428;-79
2021/12/31 10:44:42;;;;;;;10.18;3.80;;;;;;;;;;5135249;27;20050;-77
2021/12/31 10:47:11;;;;;;;7.57;3.45;;;;;;;;;;5117211;27;20043;-79
2021/12/31 10:49:57;;;;;;;11.35;3.80;;;;;;;;;;5135155;27;20039;-78
2021/12/31 10:52:25;;;;;;;8.05;3.50;;;;;;;;;;5134137;27;20049;-78
2021/12/31 10:55:01;;;;;;;6.70;3.50;;;;;;;;;;5154614;27;20050;-79
2021/12/31 10:57:35;;;;;;;10.15;3.95;;;;;;;;;;5155291;27;20141;-79
2021/12/31 11:00:01;;;;;;;10.68;4.10;;;;;;;;;;5137301;27;20179;-79
2021/12/31 11:02:27;;;;;;;8.57;3.67;;;;;;;;;;5150727;27;20093;-81
2021/12/31 11:04:53;;;;;;;8.93;4.03;;;;;;;;;;5116878;27;20357;-79
2021/12/31 11:07:20;;;;;;;8.25;4.20;;;;;;;;;;5134784;27;20046;-80
2021/12/31 11:09:46;;;;;;;9.13;3.60;;;;;;;;;;5134773;27;20125;-77
2021/12/31 11:12:13;;;;;;;6.63;3.55;;;;;;;;;;5135401;27;20507;-80
2021/12/31 11:14:39;;;;;;;9.30;3.88;;;;;;;;;;5121578;27;20114;-80
2021/12/31 11:17:05;;;;;;;8.23;3.78;;;;;;;;;;5136616;27;20034;-79
2021/12/31 11:19:32;;;;;;;9.25;4.07;;;;;;;;;;5155260;27;20135;-80
2021/12/31 11:21:58;;;;;;;9.45;4.20;;;;;;;;;;5155159;27;20505;-79
2021/12/31 11:24:36;;;;;;;8.50;4.20;;;;;;;;;;5127586;27;20555;-80
2021/12/31 11:27:27;;;;;;;8.93;4.13;;;;;;;;;;5155166;27;20649;-80
2021/12/31 11:29:54;;;;;;;8.55;3.75;;;;;;;;;;5136712;27;20555;-80
2021/12/31 11:32:40;;;;;;;10.15;4.47;;;;;;;;;;5154264;27;20077;-80
2021/12/31 11:35:25;;;;;;;9.68;4.30;;;;;;;;;;5133923;27;20543;-78
2021/12/31 11:37:52;;;;;;;11.05;4.53;;;;;;;;;;5115693;27;20051;-78
2021/12/31 11:40:30;;;;;;;9.05;4.63;;;;;;;;;;5134288;27;20039;-78
2021/12/31 11:43:15;;;;;;;9.32;4.53;;;;;;;;;;5133856;27;20255;-79
2021/12/31 11:45:41;;;;;;;12.02;4.82;;;;;;;;;;5115623;27;20047;-78
2021/12/31 11:48:28;;;;;;;11.30;4.65;;;;;;;;;;5133661;27;20082;-79
2021/12/31 11:51:04;;;;;;;9.07;5.00;;;;;;;;;;5116187;27;20504;-78
2021/12/31 11:53:30;;;;;;;10.32;4.50;;;;;;;;;;5133905;27;20051;-79
2021/12/31 11:55:56;;;;;;;9.82;4.97;;;;;;;;;;5124300;27;22136;-80
2021/12/31 11:58:36;;;;;;;10.55;5.65;;;;;;;;;;5117506;27;20082;-80
2021/12/31 12:01:32;;;;;;;10.88;5.95;;;;;;;;;;5116226;27;20066;-79
2021/12/31 12:04:16;;;;;;;10.52;5.55;;;;;;;;;;5042804;27;20144;-78
2021/12/31 12:06:59;;;;;;;12.10;5.95;;;;;;;;;;5115378;28;20081;-79
2021/12/31 12:09:34;;;;;;;12.15;6.07;;;;;;;;;;5115522;27;20372;-80
2021/12/31 12:12:03;;;;;;;12.82;5.50;;;;;;;;;;5133349;27;20078;-78
2021/12/31 12:14:45;;;;;;;10.95;5.30;;;;;;;;;;5133001;27;20042;-80
2021/12/31 12:17:39;;;;;;;14.70;5.78;;;;;;;;;;5133434;27;20043;-78
2021/12/31 12:20:13;;;;;;;10.95;4.85;;;;;;;;;;5115561;28;20047;-79
2021/12/31 12:22:50;;;;;;;9.57;5.40;;;;;;;;;;5133540;28;20459;-80
2021/12/31 12:25:21;;;;;;;19.10;12.57;;;;;;;;;;5133709;28;20082;-80
2021/12/31 12:27:48;;;;;;;18.65;13.50;;;;;;;;;;5133414;28;20050;-79
2021/12/31 12:30:15;;;;;;;17.63;10.00;;;;;;;;;;5133638;28;20392;-80
2021/12/31 12:35:17;;;;;;;27.85;18.73;;;;;;;;;;5114845;28;20043;-79
2021/12/31 12:37:44;;;;;;;17.30;8.38;;;;;;;;;;5133374;28;20391;-79
2021/12/31 12:40:11;;;;;;;17.95;10.40;;;;;;;;;;5133220;28;20627;-78
2021/12/31 12:42:44;;;;;;;20.17;11.48;;;;;;;;;;5133309;28;20134;-78
2021/12/31 12:45:10;;;;;;;18.27;11.07;;;;;;;;;;5133097;28;20053;-79
2021/12/31 12:47:36;;;;;;;16.13;10.27;;;;;;;;;;5133450;28;20387;-78
2021/12/31 12:50:04;;;;;;;18.23;9.73;;;;;;;;;;5133183;28;20063;-77
2021/12/31 12:52:30;;;;;;;16.15;10.45;;;;;;;;;;5133257;28;20068;-78
2021/12/31 12:55:09;;;;;;;18.50;13.52;;;;;;;;;;5133083;28;20441;-77
2021/12/31 12:57:36;;;;;;;17.65;10.13;;;;;;;;;;5133125;28;20057;-77
2021/12/31 13:00:02;;;;;;;15.82;10.05;;;;;;;;;;5133076;28;20043;-77
2021/12/31 13:02:37;;;;;;;17.38;8.98;;;;;;;;;;5133090;28;20046;-78
2021/12/31 13:05:11;;;;;;;16.48;9.07;;;;;;;;;;5133016;28;20520;-78
2021/12/31 13:07:38;;;;;;;15.45;8.27;;;;;;;;;;5114584;28;20047;-78
2021/12/31 13:10:08;;;;;;;15.43;8.90;;;;;;;;;;5133172;28;20384;-77
2021/12/31 13:12:36;;;;;;;13.45;8.23;;;;;;;;;;5133180;28;20054;-77
2021/12/31 13:15:04;;;;;;;14.30;8.30;;;;;;;;;;5132916;28;20476;-77
2021/12/31 13:17:32;;;;;;;15.38;8.82;;;;;;;;;;5133001;28;20438;-77
2021/12/31 13:20:13;;;;;;;12.70;8.32;;;;;;;;;;5114733;28;20050;-78
2021/12/31 13:22:40;;;;;;;15.65;8.02;;;;;;;;;;5132959;28;20047;-78
2021/12/31 13:25:07;;;;;;;11.98;7.55;;;;;;;;;;5117307;27;20525;-78
2021/12/31 13:27:37;;;;;;;20.17;13.75;;;;;;;;;;5136632;27;20153;-77
2021/12/31 13:30:08;;;;;;;14.68;7.97;;;;;;;;;;5118101;27;20039;-77
2021/12/31 13:32:47;;;;;;;11.40;5.82;;;;;;;;;;5136358;27;20047;-76
2021/12/31 13:35:14;;;;;;;10.07;5.68;;;;;;;;;;5136561;27;20065;-77
2021/12/31 13:37:42;;;;;;;11.02;5.80;;;;;;;;;;5136351;27;20115;-77
2021/12/31 13:40:12;;;;;;;10.05;4.93;;;;;;;;;;5136455;27;20039;-76
2021/12/31 13:42:39;;;;;;;12.32;5.43;;;;;;;;;;5118156;27;20050;-77
2021/12/31 13:45:07;;;;;;;9.23;5.47;;;;;;;;;;5136040;27;20043;-77
2021/12/31 13:47:33;;;;;;;8.95;4.97;;;;;;;;;;5136536;27;20046;-78
2021/12/31 13:50:02;;;;;;;10.43;5.13;;;;;;;;;;5118065;27;20758;-79
2021/12/31 13:52:34;;;;;;;8.45;4.75;;;;;;;;;;5136441;27;20039;-77
2021/12/31 13:55:16;;;;;;;10.35;5.25;;;;;;;;;;5136038;27;20039;-79
2021/12/31 13:57:51;;;;;;;12.10;8.32;;;;;;;;;;5117596;27;20048;-79
2021/12/31 14:00:18;;;;;;;9.73;5.22;;;;;;;;;;5136022;27;20050;-78
2021/12/31 14:02:44;;;;;;;10.07;3.97;;;;;;;;;;5135949;27;20129;-78
2021/12/31 14:05:11;;;;;;;12.57;5.15;;;;;;;;;;5135939;27;20051;-79
2021/12/31 14:07:58;;;;;;;12.57;4.53;;;;;;;;;;5117639;27;20051;-78
2021/12/31 14:10:31;;;;;;;13.23;4.60;;;;;;;;;;5117769;27;20120;-79
2021/12/31 14:13:00;;;;;;;14.70;4.32;;;;;;;;;;5117631;27;20046;-79
2021/12/31 14:15:32;;;;;;;8.93;3.92;;;;;;;;;;5135861;27;20039;-78
2021/12/31 14:17:59;;;;;;;12.75;4.47;;;;;;;;;;5117751;27;20075;-79
2021/12/31 14:20:27;;;;;;;14.48;4.57;;;;;;;;;;5117175;27;20051;-77
2021/12/31 14:22:53;;;;;;;14.73;4.82;;;;;;;;;;5135898;27;20135;-78
2021/12/31 14:25:24;;;;;;;14.18;4.72;;;;;;;;;;5116222;27;20051;-73
2021/12/31 14:27:51;;;;;;;13.10;4.75;;;;;;;;;;5096442;27;20301;-81
2021/12/31 14:30:18;;;;;;;16.38;5.30;;;;;;;;;;5100358;27;20073;-81
2021/12/31 14:32:44;;;;;;;15.38;4.90;;;;;;;;;;5135312;27;20046;-81
2021/12/31 14:35:13;;;;;;;15.45;4.78;;;;;;;;;;5114554;27;20050;-82
2021/12/31 14:37:40;;;;;;;14.70;4.50;;;;;;;;;;5099775;27;20049;-80
2021/12/31 14:40:13;;;;;;;13.05;4.53;;;;;;;;;;5116171;27;20047;-81
2021/12/31 14:42:40;;;;;;;13.00;4.97;;;;;;;;;;5115938;27;20043;-81
2021/12/31 14:45:07;;;;;;;13.85;5.07;;;;;;;;;;5099308;27;20047;-80
2021/12/31 14:47:34;;;;;;;12.38;5.40;;;;;;;;;;5134230;27;20425;-76